sensor_id;sensor_type;location;lat;lon;timestamp;P1;durP1;ratioP1;P2;durP2;ratioP2
19826;SDS011;10074;52.018;4.726;2023-04-23T00:03:44;2.17;;;1.97;;
19826;SDS011;10074;52.018;4.726;2023-04-23T00:08:45;2.27;;;2.10;;
19826;SDS011;10074;52.018;4.726;2023-04-23T00:13:47;5.83;;;1.60;;
19826;SDS011;10074;52.018;4.726;2023-04-23T00:18:48;2.37;;;1.50;;
19826;SDS011;10074;52.018;4.726;2023-04-23T00:23:48;3.70;;;2.60;;
19826;SDS011;10074;52.018;4.726;2023-04-23T00:28:49;3.33;;;2.60;;
19826;SDS011;10074;52.018;4.726;2023-04-23T00:33:49;3.57;;;2.70;;
19826;SDS011;10074;52.018;4.726;2023-04-23T00:38:49;2.30;;;1.80;;
19826;SDS011;10074;52.018;4.726;2023-04-23T00:43:50;2.40;;;2.20;;
19826;SDS011;10074;52.018;4.726;2023-04-23T00:48:52;1.93;;;1.83;;
19826;SDS011;10074;52.018;4.726;2023-04-23T00:53:54;3.93;;;2.43;;
19826;SDS011;10074;52.018;4.726;2023-04-23T00:58:54;3.30;;;1.90;;
19826;SDS011;10074;52.018;4.726;2023-04-23T01:03:55;2.57;;;2.37;;
19826;SDS011;10074;52.018;4.726;2023-04-23T01:08:56;3.03;;;2.80;;
19826;SDS011;10074;52.018;4.726;2023-04-23T01:13:57;2.70;;;2.50;;
19826;SDS011;10074;52.018;4.726;2023-04-23T01:18:58;2.20;;;1.97;;
19826;SDS011;10074;52.018;4.726;2023-04-23T01:23:58;2.60;;;2.40;;
19826;SDS011;10074;52.018;4.726;2023-04-23T01:28:59;3.43;;;2.60;;
19826;SDS011;10074;52.018;4.726;2023-04-23T01:34:00;2.37;;;2.13;;
19826;SDS011;10074;52.018;4.726;2023-04-23T01:39:01;2.67;;;2.00;;
19826;SDS011;10074;52.018;4.726;2023-04-23T01:44:01;3.50;;;3.20;;
19826;SDS011;10074;52.018;4.726;2023-04-23T01:49:01;4.43;;;2.40;;
19826;SDS011;10074;52.018;4.726;2023-04-23T01:54:02;3.13;;;2.93;;
19826;SDS011;10074;52.018;4.726;2023-04-23T01:59:02;2.97;;;2.50;;
19826;SDS011;10074;52.018;4.726;2023-04-23T02:04:02;3.57;;;2.70;;
19826;SDS011;10074;52.018;4.726;2023-04-23T02:09:03;2.37;;;1.70;;
19826;SDS011;10074;52.018;4.726;2023-04-23T02:14:04;2.43;;;2.10;;
19826;SDS011;10074;52.018;4.726;2023-04-23T02:19:04;3.77;;;2.20;;
19826;SDS011;10074;52.018;4.726;2023-04-23T02:24:05;2.20;;;2.00;;
19826;SDS011;10074;52.018;4.726;2023-04-23T02:29:05;3.60;;;2.63;;
19826;SDS011;10074;52.018;4.726;2023-04-23T02:34:06;2.47;;;1.93;;
19826;SDS011;10074;52.018;4.726;2023-04-23T02:39:07;3.70;;;2.33;;
19826;SDS011;10074;52.018;4.726;2023-04-23T02:44:07;2.73;;;2.50;;
19826;SDS011;10074;52.018;4.726;2023-04-23T02:49:07;2.53;;;2.30;;
19826;SDS011;10074;52.018;4.726;2023-04-23T02:54:08;2.17;;;1.90;;
19826;SDS011;10074;52.018;4.726;2023-04-23T02:59:08;4.50;;;4.10;;
19826;SDS011;10074;52.018;4.726;2023-04-23T03:04:08;2.20;;;1.97;;
19826;SDS011;10074;52.018;4.726;2023-04-23T03:09:09;2.43;;;2.23;;
19826;SDS011;10074;52.018;4.726;2023-04-23T03:14:09;3.27;;;2.40;;
19826;SDS011;10074;52.018;4.726;2023-04-23T03:19:10;3.77;;;2.73;;
19826;SDS011;10074;52.018;4.726;2023-04-23T03:24:11;2.70;;;2.50;;
19826;SDS011;10074;52.018;4.726;2023-04-23T03:29:12;2.37;;;2.17;;
19826;SDS011;10074;52.018;4.726;2023-04-23T03:34:12;2.23;;;1.97;;
19826;SDS011;10074;52.018;4.726;2023-04-23T03:39:13;2.63;;;2.30;;
19826;SDS011;10074;52.018;4.726;2023-04-23T03:44:14;1.67;;;1.57;;
19826;SDS011;10074;52.018;4.726;2023-04-23T03:49:14;1.97;;;1.60;;
19826;SDS011;10074;52.018;4.726;2023-04-23T03:54:15;2.07;;;1.87;;
19826;SDS011;10074;52.018;4.726;2023-04-23T03:59:15;1.60;;;1.50;;
19826;SDS011;10074;52.018;4.726;2023-04-23T04:04:16;4.97;;;2.43;;
19826;SDS011;10074;52.018;4.726;2023-04-23T04:09:16;2.47;;;2.00;;
19826;SDS011;10074;52.018;4.726;2023-04-23T04:14:16;2.70;;;2.27;;
19826;SDS011;10074;52.018;4.726;2023-04-23T04:19:17;2.23;;;2.03;;
19826;SDS011;10074;52.018;4.726;2023-04-23T04:24:17;2.90;;;1.57;;
19826;SDS011;10074;52.018;4.726;2023-04-23T04:29:17;1.83;;;1.73;;
19826;SDS011;10074;52.018;4.726;2023-04-23T04:34:20;4.03;;;2.43;;
19826;SDS011;10074;52.018;4.726;2023-04-23T04:39:20;2.23;;;2.03;;
19826;SDS011;10074;52.018;4.726;2023-04-23T04:44:20;2.37;;;2.17;;
19826;SDS011;10074;52.018;4.726;2023-04-23T04:49:21;3.10;;;2.60;;
19826;SDS011;10074;52.018;4.726;2023-04-23T04:54:22;3.17;;;2.00;;
19826;SDS011;10074;52.018;4.726;2023-04-23T04:59:22;2.90;;;2.20;;
19826;SDS011;10074;52.018;4.726;2023-04-23T05:04:22;1.97;;;1.80;;
19826;SDS011;10074;52.018;4.726;2023-04-23T05:09:23;1.80;;;1.70;;
19826;SDS011;10074;52.018;4.726;2023-04-23T05:14:24;2.83;;;2.40;;
19826;SDS011;10074;52.018;4.726;2023-04-23T05:19:25;2.77;;;2.13;;
19826;SDS011;10074;52.018;4.726;2023-04-23T05:24:25;1.63;;;1.53;;
19826;SDS011;10074;52.018;4.726;2023-04-23T05:29:26;1.93;;;1.83;;
19826;SDS011;10074;52.018;4.726;2023-04-23T05:34:26;1.90;;;1.80;;
19826;SDS011;10074;52.018;4.726;2023-04-23T05:39:26;1.50;;;1.40;;
19826;SDS011;10074;52.018;4.726;2023-04-23T05:44:27;2.30;;;1.77;;
19826;SDS011;10074;52.018;4.726;2023-04-23T05:49:28;2.73;;;2.07;;
19826;SDS011;10074;52.018;4.726;2023-04-23T05:54:28;2.67;;;2.17;;
19826;SDS011;10074;52.018;4.726;2023-04-23T05:59:28;2.53;;;2.33;;
19826;SDS011;10074;52.018;4.726;2023-04-23T06:04:28;1.37;;;1.20;;
19826;SDS011;10074;52.018;4.726;2023-04-23T06:09:29;2.63;;;1.87;;
19826;SDS011;10074;52.018;4.726;2023-04-23T06:14:29;2.07;;;1.67;;
19826;SDS011;10074;52.018;4.726;2023-04-23T06:19:30;2.27;;;1.60;;
19826;SDS011;10074;52.018;4.726;2023-04-23T06:24:30;2.57;;;1.97;;
19826;SDS011;10074;52.018;4.726;2023-04-23T06:29:31;1.17;;;1.07;;
19826;SDS011;10074;52.018;4.726;2023-04-23T06:34:31;2.43;;;2.27;;
19826;SDS011;10074;52.018;4.726;2023-04-23T06:39:31;2.73;;;1.40;;
19826;SDS011;10074;52.018;4.726;2023-04-23T06:44:32;1.50;;;1.40;;
19826;SDS011;10074;52.018;4.726;2023-04-23T06:49:33;2.30;;;2.10;;
19826;SDS011;10074;52.018;4.726;2023-04-23T06:54:33;2.10;;;1.50;;
19826;SDS011;10074;52.018;4.726;2023-04-23T06:59:33;2.33;;;1.53;;
19826;SDS011;10074;52.018;4.726;2023-04-23T07:04:34;1.47;;;1.37;;
19826;SDS011;10074;52.018;4.726;2023-04-23T07:09:35;1.67;;;1.57;;
19826;SDS011;10074;52.018;4.726;2023-04-23T07:14:35;2.17;;;1.97;;
19826;SDS011;10074;52.018;4.726;2023-04-23T07:19:36;2.73;;;2.53;;
19826;SDS011;10074;52.018;4.726;2023-04-23T07:24:36;2.00;;;1.90;;
19826;SDS011;10074;52.018;4.726;2023-04-23T07:29:36;1.40;;;1.17;;
19826;SDS011;10074;52.018;4.726;2023-04-23T07:34:37;1.83;;;1.73;;
19826;SDS011;10074;52.018;4.726;2023-04-23T07:39:37;2.87;;;1.70;;
19826;SDS011;10074;52.018;4.726;2023-04-23T07:44:38;1.63;;;1.53;;
19826;SDS011;10074;52.018;4.726;2023-04-23T07:49:38;2.33;;;1.53;;
19826;SDS011;10074;52.018;4.726;2023-04-23T07:54:38;2.87;;;2.40;;
19826;SDS011;10074;52.018;4.726;2023-04-23T07:59:39;1.80;;;1.60;;
19826;SDS011;10074;52.018;4.726;2023-04-23T08:04:39;2.53;;;1.50;;
19826;SDS011;10074;52.018;4.726;2023-04-23T08:09:39;2.27;;;1.97;;
19826;SDS011;10074;52.018;4.726;2023-04-23T08:14:39;3.03;;;1.63;;
19826;SDS011;10074;52.018;4.726;2023-04-23T08:19:40;2.77;;;1.77;;
19826;SDS011;10074;52.018;4.726;2023-04-23T08:24:41;1.40;;;1.30;;
19826;SDS011;10074;52.018;4.726;2023-04-23T08:29:42;3.23;;;2.27;;
19826;SDS011;10074;52.018;4.726;2023-04-23T08:34:42;1.50;;;1.40;;
19826;SDS011;10074;52.018;4.726;2023-04-23T08:39:43;2.40;;;1.77;;
19826;SDS011;10074;52.018;4.726;2023-04-23T08:44:43;2.37;;;1.57;;
19826;SDS011;10074;52.018;4.726;2023-04-23T08:49:45;1.60;;;1.30;;
19826;SDS011;10074;52.018;4.726;2023-04-23T08:54:51;2.83;;;1.53;;
19826;SDS011;10074;52.018;4.726;2023-04-23T08:59:52;2.20;;;1.30;;
19826;SDS011;10074;52.018;4.726;2023-04-23T09:04:54;1.73;;;0.93;;
19826;SDS011;10074;52.018;4.726;2023-04-23T09:09:54;1.50;;;1.40;;
19826;SDS011;10074;52.018;4.726;2023-04-23T09:14:55;2.37;;;1.30;;
19826;SDS011;10074;52.018;4.726;2023-04-23T09:19:56;2.20;;;2.00;;
19826;SDS011;10074;52.018;4.726;2023-04-23T09:25:00;2.67;;;1.50;;
19826;SDS011;10074;52.018;4.726;2023-04-23T09:30:01;1.37;;;1.27;;
19826;SDS011;10074;52.018;4.726;2023-04-23T09:35:04;2.53;;;1.57;;
19826;SDS011;10074;52.018;4.726;2023-04-23T09:40:06;1.27;;;1.17;;
19826;SDS011;10074;52.018;4.726;2023-04-23T09:45:10;2.30;;;1.27;;
19826;SDS011;10074;52.018;4.726;2023-04-23T09:50:11;1.77;;;1.37;;
19826;SDS011;10074;52.018;4.726;2023-04-23T09:55:11;1.33;;;1.23;;
19826;SDS011;10074;52.018;4.726;2023-04-23T10:00:13;1.17;;;0.80;;
19826;SDS011;10074;52.018;4.726;2023-04-23T10:05:16;1.30;;;1.17;;
19826;SDS011;10074;52.018;4.726;2023-04-23T10:10:18;2.00;;;1.20;;
19826;SDS011;10074;52.018;4.726;2023-04-23T10:15:18;1.33;;;0.90;;
19826;SDS011;10074;52.018;4.726;2023-04-23T10:20:19;1.50;;;1.40;;
19826;SDS011;10074;52.018;4.726;2023-04-23T10:25:21;1.23;;;1.13;;
19826;SDS011;10074;52.018;4.726;2023-04-23T10:30:23;1.03;;;1.03;;
19826;SDS011;10074;52.018;4.726;2023-04-23T10:35:24;1.50;;;1.40;;
19826;SDS011;10074;52.018;4.726;2023-04-23T10:40:27;2.30;;;1.13;;
19826;SDS011;10074;52.018;4.726;2023-04-23T10:45:30;1.20;;;1.10;;
19826;SDS011;10074;52.018;4.726;2023-04-23T10:50:33;2.77;;;1.40;;
19826;SDS011;10074;52.018;4.726;2023-04-23T10:55:34;1.10;;;0.90;;
19826;SDS011;10074;52.018;4.726;2023-04-23T11:00:42;2.87;;;1.87;;
19826;SDS011;10074;52.018;4.726;2023-04-23T11:05:45;1.10;;;1.00;;
19826;SDS011;10074;52.018;4.726;2023-04-23T11:10:55;0.80;;;0.80;;
19826;SDS011;10074;52.018;4.726;2023-04-23T11:16:15;2.93;;;1.33;;
19826;SDS011;10074;52.018;4.726;2023-04-23T11:21:20;1.47;;;0.80;;
19826;SDS011;10074;52.018;4.726;2023-04-23T11:26:20;1.53;;;1.20;;
19826;SDS011;10074;52.018;4.726;2023-04-23T11:31:22;1.67;;;1.57;;
19826;SDS011;10074;52.018;4.726;2023-04-23T11:36:22;1.67;;;1.37;;
19826;SDS011;10074;52.018;4.726;2023-04-23T11:41:23;1.27;;;1.20;;
19826;SDS011;10074;52.018;4.726;2023-04-23T11:46:23;2.10;;;1.00;;
19826;SDS011;10074;52.018;4.726;2023-04-23T11:51:24;1.10;;;1.00;;
19826;SDS011;10074;52.018;4.726;2023-04-23T11:56:28;1.60;;;1.30;;
19826;SDS011;10074;52.018;4.726;2023-04-23T12:06:58;2.83;;;0.80;;
19826;SDS011;10074;52.018;4.726;2023-04-23T12:11:59;1.07;;;1.00;;
19826;SDS011;10074;52.018;4.726;2023-04-23T12:17:07;2.23;;;0.90;;
19826;SDS011;10074;52.018;4.726;2023-04-23T12:22:09;0.87;;;0.83;;
19826;SDS011;10074;52.018;4.726;2023-04-23T12:27:12;2.87;;;0.80;;
19826;SDS011;10074;52.018;4.726;2023-04-23T12:32:14;2.50;;;1.20;;
19826;SDS011;10074;52.018;4.726;2023-04-23T12:37:14;1.17;;;1.07;;
19826;SDS011;10074;52.018;4.726;2023-04-23T12:42:16;1.60;;;0.90;;
19826;SDS011;10074;52.018;4.726;2023-04-23T12:47:17;1.03;;;0.70;;
19826;SDS011;10074;52.018;4.726;2023-04-23T12:52:20;0.70;;;0.70;;
19826;SDS011;10074;52.018;4.726;2023-04-23T12:57:20;6.33;;;1.93;;
19826;SDS011;10074;52.018;4.726;2023-04-23T13:02:22;1.00;;;0.90;;
19826;SDS011;10074;52.018;4.726;2023-04-23T13:07:23;0.83;;;0.60;;
19826;SDS011;10074;52.018;4.726;2023-04-23T13:12:23;0.63;;;0.63;;
19826;SDS011;10074;52.018;4.726;2023-04-23T13:17:24;1.27;;;0.60;;
19826;SDS011;10074;52.018;4.726;2023-04-23T13:22:25;1.37;;;0.67;;
19826;SDS011;10074;52.018;4.726;2023-04-23T13:27:28;0.80;;;0.80;;
19826;SDS011;10074;52.018;4.726;2023-04-23T13:32:28;1.03;;;0.90;;
19826;SDS011;10074;52.018;4.726;2023-04-23T13:37:31;1.00;;;0.80;;
19826;SDS011;10074;52.018;4.726;2023-04-23T13:42:32;0.77;;;0.70;;
19826;SDS011;10074;52.018;4.726;2023-04-23T13:47:33;0.50;;;0.50;;
19826;SDS011;10074;52.018;4.726;2023-04-23T13:52:34;0.87;;;0.87;;
19826;SDS011;10074;52.018;4.726;2023-04-23T13:57:34;4.43;;;0.70;;
19826;SDS011;10074;52.018;4.726;2023-04-23T14:02:34;1.33;;;1.23;;
19826;SDS011;10074;52.018;4.726;2023-04-23T14:07:35;1.07;;;1.07;;
19826;SDS011;10074;52.018;4.726;2023-04-23T14:12:36;0.67;;;0.67;;
19826;SDS011;10074;52.018;4.726;2023-04-23T14:17:37;1.50;;;0.63;;
19826;SDS011;10074;52.018;4.726;2023-04-23T14:22:39;1.90;;;0.70;;
19826;SDS011;10074;52.018;4.726;2023-04-23T14:27:44;0.67;;;0.67;;
19826;SDS011;10074;52.018;4.726;2023-04-23T14:32:48;1.70;;;1.00;;
19826;SDS011;10074;52.018;4.726;2023-04-23T14:37:50;1.10;;;1.00;;
19826;SDS011;10074;52.018;4.726;2023-04-23T14:42:51;3.80;;;1.03;;
19826;SDS011;10074;52.018;4.726;2023-04-23T14:47:51;3.70;;;0.70;;
19826;SDS011;10074;52.018;4.726;2023-04-23T14:52:53;1.03;;;0.97;;
19826;SDS011;10074;52.018;4.726;2023-04-23T14:57:53;0.60;;;0.60;;
19826;SDS011;10074;52.018;4.726;2023-04-23T15:02:53;1.87;;;1.33;;
19826;SDS011;10074;52.018;4.726;2023-04-23T15:07:55;0.70;;;0.70;;
19826;SDS011;10074;52.018;4.726;2023-04-23T15:18:06;1.30;;;0.90;;
19826;SDS011;10074;52.018;4.726;2023-04-23T15:23:06;1.13;;;0.80;;
19826;SDS011;10074;52.018;4.726;2023-04-23T15:28:06;2.47;;;0.77;;
19826;SDS011;10074;52.018;4.726;2023-04-23T15:33:07;1.27;;;0.70;;
19826;SDS011;10074;52.018;4.726;2023-04-23T15:38:07;0.63;;;0.63;;
19826;SDS011;10074;52.018;4.726;2023-04-23T15:43:11;1.00;;;0.90;;
19826;SDS011;10074;52.018;4.726;2023-04-23T15:48:15;1.77;;;1.00;;
19826;SDS011;10074;52.018;4.726;2023-04-23T15:53:15;0.77;;;0.63;;
19826;SDS011;10074;52.018;4.726;2023-04-23T15:58:19;0.70;;;0.70;;
19826;SDS011;10074;52.018;4.726;2023-04-23T16:03:20;0.80;;;0.80;;
19826;SDS011;10074;52.018;4.726;2023-04-23T16:08:20;0.87;;;0.70;;
19826;SDS011;10074;52.018;4.726;2023-04-23T16:13:20;2.10;;;1.27;;
19826;SDS011;10074;52.018;4.726;2023-04-23T16:18:22;0.57;;;0.50;;
19826;SDS011;10074;52.018;4.726;2023-04-23T16:23:22;4.17;;;1.23;;
19826;SDS011;10074;52.018;4.726;2023-04-23T16:28:22;0.67;;;0.67;;
19826;SDS011;10074;52.018;4.726;2023-04-23T16:33:23;2.77;;;1.03;;
19826;SDS011;10074;52.018;4.726;2023-04-23T16:38:24;1.13;;;0.60;;
19826;SDS011;10074;52.018;4.726;2023-04-23T16:43:26;0.70;;;0.70;;
19826;SDS011;10074;52.018;4.726;2023-04-23T16:48:26;0.70;;;0.70;;
19826;SDS011;10074;52.018;4.726;2023-04-23T16:53:26;1.13;;;0.63;;
19826;SDS011;10074;52.018;4.726;2023-04-23T16:58:27;5.53;;;1.03;;
19826;SDS011;10074;52.018;4.726;2023-04-23T17:03:27;2.50;;;0.60;;
19826;SDS011;10074;52.018;4.726;2023-04-23T17:08:28;0.70;;;0.60;;
19826;SDS011;10074;52.018;4.726;2023-04-23T17:13:28;0.37;;;0.37;;
19826;SDS011;10074;52.018;4.726;2023-04-23T17:18:28;0.90;;;0.70;;
19826;SDS011;10074;52.018;4.726;2023-04-23T17:23:29;1.40;;;0.80;;
19826;SDS011;10074;52.018;4.726;2023-04-23T17:28:29;1.65;;;1.05;;
19826;SDS011;10074;52.018;4.726;2023-04-23T17:33:29;1.33;;;1.13;;
19826;SDS011;10074;52.018;4.726;2023-04-23T17:38:30;1.53;;;0.90;;
19826;SDS011;10074;52.018;4.726;2023-04-23T17:43:30;1.60;;;0.50;;
19826;SDS011;10074;52.018;4.726;2023-04-23T17:48:33;1.27;;;0.43;;
19826;SDS011;10074;52.018;4.726;2023-04-23T17:53:33;1.73;;;0.63;;
19826;SDS011;10074;52.018;4.726;2023-04-23T17:58:35;0.70;;;0.63;;
19826;SDS011;10074;52.018;4.726;2023-04-23T18:03:35;0.77;;;0.70;;
19826;SDS011;10074;52.018;4.726;2023-04-23T18:08:35;0.50;;;0.50;;
19826;SDS011;10074;52.018;4.726;2023-04-23T18:13:36;0.67;;;0.67;;
19826;SDS011;10074;52.018;4.726;2023-04-23T18:18:36;0.47;;;0.47;;
19826;SDS011;10074;52.018;4.726;2023-04-23T18:23:37;0.77;;;0.50;;
19826;SDS011;10074;52.018;4.726;2023-04-23T18:28:38;0.70;;;0.57;;
19826;SDS011;10074;52.018;4.726;2023-04-23T18:38:42;0.57;;;0.50;;
19826;SDS011;10074;52.018;4.726;2023-04-23T18:43:45;0.90;;;0.90;;
19826;SDS011;10074;52.018;4.726;2023-04-23T18:48:59;0.60;;;0.60;;
19826;SDS011;10074;52.018;4.726;2023-04-23T18:54:05;0.40;;;0.40;;
19826;SDS011;10074;52.018;4.726;2023-04-23T18:59:05;0.47;;;0.47;;
19826;SDS011;10074;52.018;4.726;2023-04-23T19:04:06;0.70;;;0.43;;
19826;SDS011;10074;52.018;4.726;2023-04-23T19:09:06;0.50;;;0.43;;
19826;SDS011;10074;52.018;4.726;2023-04-23T19:14:06;3.17;;;0.60;;
19826;SDS011;10074;52.018;4.726;2023-04-23T19:19:07;0.90;;;0.70;;
19826;SDS011;10074;52.018;4.726;2023-04-23T19:24:07;3.47;;;1.00;;
19826;SDS011;10074;52.018;4.726;2023-04-23T19:29:07;0.77;;;0.50;;
19826;SDS011;10074;52.018;4.726;2023-04-23T19:34:08;0.50;;;0.40;;
19826;SDS011;10074;52.018;4.726;2023-04-23T19:39:08;0.77;;;0.50;;
19826;SDS011;10074;52.018;4.726;2023-04-23T19:44:09;2.70;;;0.70;;
19826;SDS011;10074;52.018;4.726;2023-04-23T19:49:09;0.67;;;0.50;;
19826;SDS011;10074;52.018;4.726;2023-04-23T19:54:10;0.47;;;0.40;;
19826;SDS011;10074;52.018;4.726;2023-04-23T19:59:10;1.00;;;0.50;;
19826;SDS011;10074;52.018;4.726;2023-04-23T20:04:13;0.50;;;0.40;;
19826;SDS011;10074;52.018;4.726;2023-04-23T20:09:13;1.60;;;0.90;;
19826;SDS011;10074;52.018;4.726;2023-04-23T20:14:20;0.50;;;0.50;;
19826;SDS011;10074;52.018;4.726;2023-04-23T20:19:21;1.00;;;0.60;;
19826;SDS011;10074;52.018;4.726;2023-04-23T20:24:24;1.23;;;1.13;;
19826;SDS011;10074;52.018;4.726;2023-04-23T20:29:25;0.97;;;0.97;;
19826;SDS011;10074;52.018;4.726;2023-04-23T20:34:26;0.40;;;0.40;;
19826;SDS011;10074;52.018;4.726;2023-04-23T20:39:26;0.40;;;0.40;;
19826;SDS011;10074;52.018;4.726;2023-04-23T20:44:27;0.60;;;0.40;;
19826;SDS011;10074;52.018;4.726;2023-04-23T20:49:27;0.83;;;0.83;;
19826;SDS011;10074;52.018;4.726;2023-04-23T20:54:27;0.50;;;0.50;;
19826;SDS011;10074;52.018;4.726;2023-04-23T20:59:28;0.57;;;0.57;;
19826;SDS011;10074;52.018;4.726;2023-04-23T21:04:28;0.40;;;0.40;;
19826;SDS011;10074;52.018;4.726;2023-04-23T21:09:29;1.70;;;0.60;;
19826;SDS011;10074;52.018;4.726;2023-04-23T21:14:29;0.40;;;0.40;;
19826;SDS011;10074;52.018;4.726;2023-04-23T21:19:30;0.47;;;0.47;;
19826;SDS011;10074;52.018;4.726;2023-04-23T21:24:30;0.50;;;0.40;;
19826;SDS011;10074;52.018;4.726;2023-04-23T21:29:31;0.67;;;0.67;;
19826;SDS011;10074;52.018;4.726;2023-04-23T21:34:32;0.40;;;0.40;;
19826;SDS011;10074;52.018;4.726;2023-04-23T21:39:32;0.43;;;0.43;;
19826;SDS011;10074;52.018;4.726;2023-04-23T21:44:34;0.77;;;0.77;;
19826;SDS011;10074;52.018;4.726;2023-04-23T21:49:35;0.30;;;0.30;;
19826;SDS011;10074;52.018;4.726;2023-04-23T21:54:36;0.30;;;0.30;;
19826;SDS011;10074;52.018;4.726;2023-04-23T21:59:36;0.43;;;0.40;;
19826;SDS011;10074;52.018;4.726;2023-04-23T22:04:36;0.50;;;0.50;;
19826;SDS011;10074;52.018;4.726;2023-04-23T22:09:37;0.37;;;0.30;;
19826;SDS011;10074;52.018;4.726;2023-04-23T22:14:37;0.50;;;0.50;;
19826;SDS011;10074;52.018;4.726;2023-04-23T22:19:37;1.23;;;0.70;;
19826;SDS011;10074;52.018;4.726;2023-04-23T22:24:38;0.40;;;0.40;;
19826;SDS011;10074;52.018;4.726;2023-04-23T22:29:38;0.40;;;0.40;;
19826;SDS011;10074;52.018;4.726;2023-04-23T22:34:38;0.37;;;0.33;;
19826;SDS011;10074;52.018;4.726;2023-04-23T22:39:39;0.20;;;0.20;;
19826;SDS011;10074;52.018;4.726;2023-04-23T22:44:39;0.50;;;0.40;;
19826;SDS011;10074;52.018;4.726;2023-04-23T22:49:39;0.33;;;0.30;;
19826;SDS011;10074;52.018;4.726;2023-04-23T22:54:41;0.30;;;0.30;;
19826;SDS011;10074;52.018;4.726;2023-04-23T22:59:42;0.77;;;0.77;;
19826;SDS011;10074;52.018;4.726;2023-04-23T23:04:42;0.53;;;0.53;;
19826;SDS011;10074;52.018;4.726;2023-04-23T23:09:43;0.40;;;0.40;;
19826;SDS011;10074;52.018;4.726;2023-04-23T23:14:43;0.40;;;0.40;;
19826;SDS011;10074;52.018;4.726;2023-04-23T23:19:43;0.70;;;0.63;;
19826;SDS011;10074;52.018;4.726;2023-04-23T23:24:43;0.40;;;0.40;;
19826;SDS011;10074;52.018;4.726;2023-04-23T23:29:44;0.50;;;0.43;;
19826;SDS011;10074;52.018;4.726;2023-04-23T23:34:45;1.07;;;0.50;;
19826;SDS011;10074;52.018;4.726;2023-04-23T23:39:45;0.80;;;0.80;;
19826;SDS011;10074;52.018;4.726;2023-04-23T23:44:45;0.30;;;0.30;;
19826;SDS011;10074;52.018;4.726;2023-04-23T23:49:45;0.40;;;0.40;;
19826;SDS011;10074;52.018;4.726;2023-04-23T23:54:46;0.60;;;0.40;;
19826;SDS011;10074;52.018;4.726;2023-04-23T23:59:46;0.30;;;0.30;;
